sensor_id;sensor_type;location;lat;lon;timestamp;pressure;altitude;pressure_sealevel;temperature;humidity
12973;BME280;6551;51.056;9.466;2023-03-01T00:00:43;98831.47;;;-0.63;71.05
12973;BME280;6551;51.056;9.466;2023-03-01T00:03:12;98835.75;;;-0.62;71.34
12973;BME280;6551;51.056;9.466;2023-03-01T00:05:48;98831.69;;;-0.66;71.24
12973;BME280;6551;51.056;9.466;2023-03-01T00:08:15;98819.59;;;-0.67;71.01
12973;BME280;6551;51.056;9.466;2023-03-01T00:10:41;98823.75;;;-0.76;71.65
12973;BME280;6551;51.056;9.466;2023-03-01T00:13:07;98820.31;;;-0.76;71.61
12973;BME280;6551;51.056;9.466;2023-03-01T00:15:33;98823.16;;;-0.79;72.16
12973;BME280;6551;51.056;9.466;2023-03-01T00:18:02;98823.63;;;-0.74;72.47
12973;BME280;6551;51.056;9.466;2023-03-01T00:20:28;98815.78;;;-0.74;73.70
12973;BME280;6551;51.056;9.466;2023-03-01T00:22:55;98813.03;;;-0.62;74.14
12973;BME280;6551;51.056;9.466;2023-03-01T00:25:21;98821.59;;;-0.71;73.18
12973;BME280;6551;51.056;9.466;2023-03-01T00:27:47;98807.47;;;-0.68;73.20
12973;BME280;6551;51.056;9.466;2023-03-01T00:30:14;98814.81;;;-0.62;72.78
12973;BME280;6551;51.056;9.466;2023-03-01T00:32:41;98804.13;;;-0.70;72.91
12973;BME280;6551;51.056;9.466;2023-03-01T00:35:07;98811.00;;;-0.80;74.06
12973;BME280;6551;51.056;9.466;2023-03-01T00:37:33;98812.00;;;-0.81;73.72
12973;BME280;6551;51.056;9.466;2023-03-01T00:39:59;98809.47;;;-0.72;73.18
12973;BME280;6551;51.056;9.466;2023-03-01T00:42:26;98804.84;;;-0.68;72.70
12973;BME280;6551;51.056;9.466;2023-03-01T00:44:53;98799.59;;;-0.68;72.38
12973;BME280;6551;51.056;9.466;2023-03-01T00:47:19;98800.94;;;-0.96;71.91
12973;BME280;6551;51.056;9.466;2023-03-01T00:49:46;98794.88;;;-1.07;73.21
12973;BME280;6551;51.056;9.466;2023-03-01T00:52:12;98799.59;;;-1.24;73.22
12973;BME280;6551;51.056;9.466;2023-03-01T00:54:39;98807.22;;;-1.21;73.54
12973;BME280;6551;51.056;9.466;2023-03-01T00:57:05;98805.44;;;-1.31;73.65
12973;BME280;6551;51.056;9.466;2023-03-01T00:59:31;98799.59;;;-1.35;73.78
12973;BME280;6551;51.056;9.466;2023-03-01T01:01:57;98811.22;;;-1.28;73.69
12973;BME280;6551;51.056;9.466;2023-03-01T01:04:26;98806.97;;;-1.29;74.34
12973;BME280;6551;51.056;9.466;2023-03-01T01:06:52;98798.16;;;-1.28;75.48
12973;BME280;6551;51.056;9.466;2023-03-01T01:09:18;98799.59;;;-1.35;76.03
12973;BME280;6551;51.056;9.466;2023-03-01T01:11:48;98805.53;;;-1.33;75.23
12973;BME280;6551;51.056;9.466;2023-03-01T01:14:15;98811.50;;;-1.31;75.29
12973;BME280;6551;51.056;9.466;2023-03-01T01:16:44;98803.75;;;-1.32;75.15
12973;BME280;6551;51.056;9.466;2023-03-01T01:19:11;98809.44;;;-1.27;74.16
12973;BME280;6551;51.056;9.466;2023-03-01T01:21:40;98807.91;;;-1.30;73.95
12973;BME280;6551;51.056;9.466;2023-03-01T01:24:09;98800.63;;;-1.48;74.42
12973;BME280;6551;51.056;9.466;2023-03-01T01:26:35;98797.41;;;-1.52;73.87
12973;BME280;6551;51.056;9.466;2023-03-01T01:29:03;98793.16;;;-1.53;75.09
12973;BME280;6551;51.056;9.466;2023-03-01T01:31:32;98795.41;;;-1.48;75.23
12973;BME280;6551;51.056;9.466;2023-03-01T01:34:00;98792.69;;;-1.47;74.57
12973;BME280;6551;51.056;9.466;2023-03-01T01:36:26;98789.50;;;-1.50;73.61
12973;BME280;6551;51.056;9.466;2023-03-01T01:38:54;98787.44;;;-1.58;72.94
12973;BME280;6551;51.056;9.466;2023-03-01T01:41:21;98786.31;;;-1.78;74.23
12973;BME280;6551;51.056;9.466;2023-03-01T01:44:09;98777.38;;;-1.97;73.64
12973;BME280;6551;51.056;9.466;2023-03-01T01:46:38;98779.63;;;-1.93;74.50
12973;BME280;6551;51.056;9.466;2023-03-01T01:52:07;98779.81;;;-2.07;75.36
12973;BME280;6551;51.056;9.466;2023-03-01T01:54:51;98766.06;;;-2.09;76.11
12973;BME280;6551;51.056;9.466;2023-03-01T01:57:22;98758.69;;;-2.15;76.21
12973;BME280;6551;51.056;9.466;2023-03-01T01:59:54;98759.28;;;-2.11;77.01
12973;BME280;6551;51.056;9.466;2023-03-01T02:02:22;98760.34;;;-2.14;77.05
12973;BME280;6551;51.056;9.466;2023-03-01T02:04:51;98755.19;;;-2.03;77.68
12973;BME280;6551;51.056;9.466;2023-03-01T02:07:22;98753.38;;;-2.02;77.61
12973;BME280;6551;51.056;9.466;2023-03-01T02:09:51;98751.38;;;-1.99;77.58
12973;BME280;6551;51.056;9.466;2023-03-01T02:12:21;98746.53;;;-1.92;76.78
12973;BME280;6551;51.056;9.466;2023-03-01T02:14:49;98737.63;;;-2.01;75.74
12973;BME280;6551;51.056;9.466;2023-03-01T02:17:17;98739.25;;;-2.00;76.61
12973;BME280;6551;51.056;9.466;2023-03-01T02:22:36;98732.97;;;-2.08;76.51
12973;BME280;6551;51.056;9.466;2023-03-01T02:28:22;98757.13;;;-2.17;76.26
12973;BME280;6551;51.056;9.466;2023-03-01T02:30:50;98756.28;;;-2.18;76.62
12973;BME280;6551;51.056;9.466;2023-03-01T02:33:38;98756.63;;;-2.22;76.48
12973;BME280;6551;51.056;9.466;2023-03-01T02:36:08;98762.97;;;-2.14;75.97
12973;BME280;6551;51.056;9.466;2023-03-01T02:38:35;98758.50;;;-2.24;76.48
12973;BME280;6551;51.056;9.466;2023-03-01T02:41:02;98765.16;;;-2.20;75.73
12973;BME280;6551;51.056;9.466;2023-03-01T02:43:32;98762.44;;;-2.19;76.38
12973;BME280;6551;51.056;9.466;2023-03-01T02:46:07;98762.44;;;-2.19;75.83
12973;BME280;6551;51.056;9.466;2023-03-01T02:48:46;98748.47;;;-2.18;75.86
12973;BME280;6551;51.056;9.466;2023-03-01T02:51:38;98739.81;;;-2.18;74.62
12973;BME280;6551;51.056;9.466;2023-03-01T02:54:29;98732.78;;;-2.29;74.44
12973;BME280;6551;51.056;9.466;2023-03-01T02:56:59;98730.25;;;-2.42;74.92
12973;BME280;6551;51.056;9.466;2023-03-01T02:59:32;98736.03;;;-2.38;75.25
12973;BME280;6551;51.056;9.466;2023-03-01T03:04:47;98729.19;;;-2.39;75.61
12973;BME280;6551;51.056;9.466;2023-03-01T03:07:14;98726.94;;;-2.32;76.68
12973;BME280;6551;51.056;9.466;2023-03-01T03:09:40;98718.66;;;-2.26;77.89
12973;BME280;6551;51.056;9.466;2023-03-01T03:12:06;98720.94;;;-2.22;76.23
12973;BME280;6551;51.056;9.466;2023-03-01T03:14:32;98712.91;;;-2.08;76.26
12973;BME280;6551;51.056;9.466;2023-03-01T03:17:00;98706.75;;;-2.07;76.67
12973;BME280;6551;51.056;9.466;2023-03-01T03:19:26;98710.00;;;-2.27;76.15
12973;BME280;6551;51.056;9.466;2023-03-01T03:21:53;98718.31;;;-2.22;76.55
12973;BME280;6551;51.056;9.466;2023-03-01T03:24:18;98716.31;;;-2.18;76.32
12973;BME280;6551;51.056;9.466;2023-03-01T03:26:45;98710.19;;;-2.17;76.71
12973;BME280;6551;51.056;9.466;2023-03-01T03:29:11;98717.50;;;-2.22;76.30
12973;BME280;6551;51.056;9.466;2023-03-01T03:31:37;98720.22;;;-2.24;77.85
12973;BME280;6551;51.056;9.466;2023-03-01T03:34:04;98718.00;;;-2.17;77.67
12973;BME280;6551;51.056;9.466;2023-03-01T03:36:30;98718.41;;;-2.00;77.58
12973;BME280;6551;51.056;9.466;2023-03-01T03:38:56;98720.56;;;-1.94;77.29
12973;BME280;6551;51.056;9.466;2023-03-01T03:41:23;98715.09;;;-1.91;77.76
12973;BME280;6551;51.056;9.466;2023-03-01T03:43:50;98703.97;;;-1.82;77.32
12973;BME280;6551;51.056;9.466;2023-03-01T03:46:16;98700.75;;;-1.85;77.07
12973;BME280;6551;51.056;9.466;2023-03-01T03:48:44;98686.56;;;-1.81;76.91
12973;BME280;6551;51.056;9.466;2023-03-01T03:51:15;98691.53;;;-1.78;75.73
12973;BME280;6551;51.056;9.466;2023-03-01T03:53:44;98684.41;;;-1.76;74.99
12973;BME280;6551;51.056;9.466;2023-03-01T03:56:11;98679.44;;;-1.79;75.10
12973;BME280;6551;51.056;9.466;2023-03-01T03:58:37;98668.84;;;-1.89;73.67
12973;BME280;6551;51.056;9.466;2023-03-01T04:01:05;98669.34;;;-1.84;75.34
12973;BME280;6551;51.056;9.466;2023-03-01T04:03:31;98674.88;;;-1.99;75.03
12973;BME280;6551;51.056;9.466;2023-03-01T04:05:59;98675.84;;;-2.00;74.42
12973;BME280;6551;51.056;9.466;2023-03-01T04:08:27;98684.25;;;-1.97;74.52
12973;BME280;6551;51.056;9.466;2023-03-01T04:11:00;98681.78;;;-1.87;74.62
12973;BME280;6551;51.056;9.466;2023-03-01T04:13:46;98685.00;;;-1.95;75.07
12973;BME280;6551;51.056;9.466;2023-03-01T04:16:12;98678.25;;;-1.86;75.25
12973;BME280;6551;51.056;9.466;2023-03-01T04:18:39;98683.09;;;-1.93;74.95
12973;BME280;6551;51.056;9.466;2023-03-01T04:21:05;98685.31;;;-1.99;74.67
12973;BME280;6551;51.056;9.466;2023-03-01T04:23:31;98683.31;;;-1.96;75.04
12973;BME280;6551;51.056;9.466;2023-03-01T04:25:59;98678.31;;;-1.99;74.59
12973;BME280;6551;51.056;9.466;2023-03-01T04:28:46;98677.41;;;-1.75;75.71
12973;BME280;6551;51.056;9.466;2023-03-01T04:31:16;98680.38;;;-1.58;75.98
12973;BME280;6551;51.056;9.466;2023-03-01T04:33:51;98674.69;;;-1.52;75.88
12973;BME280;6551;51.056;9.466;2023-03-01T04:36:20;98668.88;;;-1.33;76.03
12973;BME280;6551;51.056;9.466;2023-03-01T04:38:47;98673.75;;;-1.29;75.19
12973;BME280;6551;51.056;9.466;2023-03-01T04:41:33;98671.44;;;-1.11;75.11
12973;BME280;6551;51.056;9.466;2023-03-01T04:44:01;98677.44;;;-1.31;74.34
12973;BME280;6551;51.056;9.466;2023-03-01T04:46:27;98667.00;;;-1.31;74.50
12973;BME280;6551;51.056;9.466;2023-03-01T04:48:54;98670.16;;;-1.61;73.89
12973;BME280;6551;51.056;9.466;2023-03-01T04:51:21;98671.84;;;-1.60;73.94
12973;BME280;6551;51.056;9.466;2023-03-01T04:53:49;98673.38;;;-1.57;73.94
12973;BME280;6551;51.056;9.466;2023-03-01T04:56:15;98667.22;;;-1.67;73.69
12973;BME280;6551;51.056;9.466;2023-03-01T04:58:44;98672.53;;;-1.69;74.44
12973;BME280;6551;51.056;9.466;2023-03-01T05:01:16;98676.47;;;-1.63;75.20
12973;BME280;6551;51.056;9.466;2023-03-01T05:03:47;98673.06;;;-1.64;74.77
12973;BME280;6551;51.056;9.466;2023-03-01T05:06:14;98671.38;;;-1.65;75.23
12973;BME280;6551;51.056;9.466;2023-03-01T05:08:42;98665.56;;;-1.57;75.02
12973;BME280;6551;51.056;9.466;2023-03-01T05:11:10;98664.47;;;-1.55;75.08
12973;BME280;6551;51.056;9.466;2023-03-01T05:13:38;98669.47;;;-1.52;75.40
12973;BME280;6551;51.056;9.466;2023-03-01T05:16:05;98662.00;;;-1.56;74.82
12973;BME280;6551;51.056;9.466;2023-03-01T05:18:33;98655.47;;;-1.51;74.69
12973;BME280;6551;51.056;9.466;2023-03-01T05:21:14;98662.47;;;-1.62;74.08
12973;BME280;6551;51.056;9.466;2023-03-01T05:23:42;98660.47;;;-1.70;74.50
12973;BME280;6551;51.056;9.466;2023-03-01T05:26:08;98665.91;;;-1.73;75.28
12973;BME280;6551;51.056;9.466;2023-03-01T05:28:35;98665.09;;;-1.62;74.89
12973;BME280;6551;51.056;9.466;2023-03-01T05:31:02;98660.69;;;-1.62;75.46
12973;BME280;6551;51.056;9.466;2023-03-01T05:33:28;98660.69;;;-1.51;74.96
12973;BME280;6551;51.056;9.466;2023-03-01T05:35:54;98655.56;;;-1.63;74.91
12973;BME280;6551;51.056;9.466;2023-03-01T05:38:21;98667.47;;;-1.59;75.17
12973;BME280;6551;51.056;9.466;2023-03-01T05:40:48;98661.31;;;-1.58;75.61
12973;BME280;6551;51.056;9.466;2023-03-01T05:43:16;98660.22;;;-1.56;75.78
12973;BME280;6551;51.056;9.466;2023-03-01T05:45:42;98660.34;;;-1.57;75.71
12973;BME280;6551;51.056;9.466;2023-03-01T05:48:10;98662.34;;;-1.50;75.97
12973;BME280;6551;51.056;9.466;2023-03-01T05:50:41;98655.47;;;-1.51;75.91
12973;BME280;6551;51.056;9.466;2023-03-01T05:53:19;98662.94;;;-1.46;75.50
12973;BME280;6551;51.056;9.466;2023-03-01T05:55:48;98667.84;;;-1.53;75.52
12973;BME280;6551;51.056;9.466;2023-03-01T05:58:18;98659.03;;;-1.52;74.72
12973;BME280;6551;51.056;9.466;2023-03-01T06:00:47;98650.03;;;-1.48;74.55
12973;BME280;6551;51.056;9.466;2023-03-01T06:03:15;98652.41;;;-1.56;75.14
12973;BME280;6551;51.056;9.466;2023-03-01T06:05:43;98654.63;;;-1.40;75.03
12973;BME280;6551;51.056;9.466;2023-03-01T06:08:12;98654.78;;;-1.53;75.16
12973;BME280;6551;51.056;9.466;2023-03-01T06:10:38;98656.31;;;-1.50;74.75
12973;BME280;6551;51.056;9.466;2023-03-01T06:13:04;98652.41;;;-1.45;75.29
12973;BME280;6551;51.056;9.466;2023-03-01T06:15:30;98654.03;;;-1.33;74.81
12973;BME280;6551;51.056;9.466;2023-03-01T06:17:56;98653.69;;;-1.28;74.22
12973;BME280;6551;51.056;9.466;2023-03-01T06:20:27;98651.66;;;-1.25;73.62
12973;BME280;6551;51.056;9.466;2023-03-01T06:22:53;98653.31;;;-1.24;73.66
12973;BME280;6551;51.056;9.466;2023-03-01T06:25:22;98658.38;;;-1.11;73.76
12973;BME280;6551;51.056;9.466;2023-03-01T06:27:50;98648.78;;;-1.10;73.66
12973;BME280;6551;51.056;9.466;2023-03-01T06:30:20;98652.56;;;-0.92;73.65
12973;BME280;6551;51.056;9.466;2023-03-01T06:32:47;98644.66;;;-0.70;74.25
12973;BME280;6551;51.056;9.466;2023-03-01T06:35:17;98643.81;;;-0.71;73.50
12973;BME280;6551;51.056;9.466;2023-03-01T06:37:46;98649.06;;;-0.50;73.30
12973;BME280;6551;51.056;9.466;2023-03-01T06:40:13;98646.88;;;-0.34;72.33
12973;BME280;6551;51.056;9.466;2023-03-01T06:42:43;98638.91;;;-0.12;72.28
12973;BME280;6551;51.056;9.466;2023-03-01T06:45:13;98640.28;;;0.13;70.98
12973;BME280;6551;51.056;9.466;2023-03-01T06:47:38;98633.56;;;0.50;70.16
12973;BME280;6551;51.056;9.466;2023-03-01T06:50:05;98639.16;;;1.26;69.51
12973;BME280;6551;51.056;9.466;2023-03-01T06:52:33;98628.75;;;2.01;68.04
12973;BME280;6551;51.056;9.466;2023-03-01T06:55:00;98635.28;;;2.80;64.93
12973;BME280;6551;51.056;9.466;2023-03-01T06:57:26;98628.91;;;3.63;62.92
12973;BME280;6551;51.056;9.466;2023-03-01T06:59:53;98632.72;;;4.29;60.65
12973;BME280;6551;51.056;9.466;2023-03-01T07:02:21;98635.84;;;5.00;57.94
12973;BME280;6551;51.056;9.466;2023-03-01T07:04:50;98635.19;;;5.64;55.55
12973;BME280;6551;51.056;9.466;2023-03-01T07:07:17;98628.94;;;6.22;54.07
12973;BME280;6551;51.056;9.466;2023-03-01T07:09:46;98625.41;;;6.45;52.86
12973;BME280;6551;51.056;9.466;2023-03-01T07:12:11;98627.16;;;6.77;52.15
12973;BME280;6551;51.056;9.466;2023-03-01T07:14:37;98622.47;;;7.26;51.09
12973;BME280;6551;51.056;9.466;2023-03-01T07:17:04;98615.78;;;7.38;49.51
12973;BME280;6551;51.056;9.466;2023-03-01T07:19:30;98610.75;;;7.89;48.98
12973;BME280;6551;51.056;9.466;2023-03-01T07:21:55;98622.16;;;7.75;48.54
12973;BME280;6551;51.056;9.466;2023-03-01T07:24:23;98622.66;;;7.70;48.60
12973;BME280;6551;51.056;9.466;2023-03-01T07:26:50;98609.75;;;7.67;48.77
12973;BME280;6551;51.056;9.466;2023-03-01T07:29:18;98615.81;;;7.53;49.10
12973;BME280;6551;51.056;9.466;2023-03-01T07:31:44;98614.41;;;7.65;48.96
12973;BME280;6551;51.056;9.466;2023-03-01T07:34:11;98614.00;;;7.76;48.87
12973;BME280;6551;51.056;9.466;2023-03-01T07:36:37;98619.31;;;7.76;48.63
12973;BME280;6551;51.056;9.466;2023-03-01T07:39:05;98613.41;;;7.89;48.70
12973;BME280;6551;51.056;9.466;2023-03-01T07:41:31;98620.44;;;7.82;49.00
12973;BME280;6551;51.056;9.466;2023-03-01T07:43:57;98611.78;;;7.88;49.22
12973;BME280;6551;51.056;9.466;2023-03-01T07:46:24;98607.97;;;8.05;48.48
12973;BME280;6551;51.056;9.466;2023-03-01T07:48:51;98613.84;;;8.15;48.53
12973;BME280;6551;51.056;9.466;2023-03-01T07:51:18;98621.50;;;8.47;48.14
12973;BME280;6551;51.056;9.466;2023-03-01T07:53:46;98618.13;;;8.97;47.01
12973;BME280;6551;51.056;9.466;2023-03-01T07:56:15;98616.72;;;9.52;45.88
12973;BME280;6551;51.056;9.466;2023-03-01T07:58:46;98607.09;;;9.72;45.22
12973;BME280;6551;51.056;9.466;2023-03-01T08:01:16;98608.50;;;10.10;44.66
12973;BME280;6551;51.056;9.466;2023-03-01T08:03:43;98605.72;;;10.18;43.88
12973;BME280;6551;51.056;9.466;2023-03-01T08:06:11;98605.72;;;10.18;43.52
12973;BME280;6551;51.056;9.466;2023-03-01T08:08:37;98593.78;;;10.35;43.67
12973;BME280;6551;51.056;9.466;2023-03-01T08:11:05;98602.47;;;10.50;43.22
12973;BME280;6551;51.056;9.466;2023-03-01T08:13:31;98597.97;;;10.23;43.24
12973;BME280;6551;51.056;9.466;2023-03-01T08:16:24;98594.16;;;10.11;43.45
12973;BME280;6551;51.056;9.466;2023-03-01T08:18:51;98590.84;;;10.30;43.53
12973;BME280;6551;51.056;9.466;2023-03-01T08:21:19;98592.50;;;10.31;43.35
12973;BME280;6551;51.056;9.466;2023-03-01T08:23:46;98579.34;;;10.23;43.16
12973;BME280;6551;51.056;9.466;2023-03-01T08:26:21;98578.56;;;10.29;43.43
12973;BME280;6551;51.056;9.466;2023-03-01T08:28:49;98588.31;;;9.73;43.50
12973;BME280;6551;51.056;9.466;2023-03-01T08:31:27;98583.88;;;9.80;44.14
12973;BME280;6551;51.056;9.466;2023-03-01T08:33:57;98584.72;;;9.60;44.07
12973;BME280;6551;51.056;9.466;2023-03-01T08:36:30;98580.66;;;9.43;43.85
12973;BME280;6551;51.056;9.466;2023-03-01T08:38:57;98575.94;;;9.45;45.06
12973;BME280;6551;51.056;9.466;2023-03-01T08:41:24;98574.94;;;9.88;44.41
12973;BME280;6551;51.056;9.466;2023-03-01T08:43:51;98577.72;;;9.59;44.39
12973;BME280;6551;51.056;9.466;2023-03-01T08:46:19;98565.25;;;9.80;44.32
12973;BME280;6551;51.056;9.466;2023-03-01T08:48:46;98561.59;;;9.81;43.94
12973;BME280;6551;51.056;9.466;2023-03-01T08:51:17;98562.81;;;10.07;43.64
12973;BME280;6551;51.056;9.466;2023-03-01T08:53:43;98560.91;;;10.00;43.32
12973;BME280;6551;51.056;9.466;2023-03-01T08:56:11;98563.38;;;10.23;43.47
12973;BME280;6551;51.056;9.466;2023-03-01T08:58:38;98559.28;;;10.55;42.54
12973;BME280;6551;51.056;9.466;2023-03-01T09:01:14;98554.91;;;10.13;42.25
12973;BME280;6551;51.056;9.466;2023-03-01T09:03:42;98548.00;;;9.97;43.08
12973;BME280;6551;51.056;9.466;2023-03-01T09:06:08;98554.13;;;9.70;43.24
12973;BME280;6551;51.056;9.466;2023-03-01T09:08:38;98549.84;;;9.97;43.14
12973;BME280;6551;51.056;9.466;2023-03-01T09:11:06;98540.06;;;9.76;42.92
12973;BME280;6551;51.056;9.466;2023-03-01T09:13:33;98535.38;;;9.78;43.32
12973;BME280;6551;51.056;9.466;2023-03-01T09:16:03;98537.66;;;10.37;42.98
12973;BME280;6551;51.056;9.466;2023-03-01T09:18:30;98545.06;;;10.41;42.13
12973;BME280;6551;51.056;9.466;2023-03-01T09:21:26;98538.84;;;10.62;42.18
12973;BME280;6551;51.056;9.466;2023-03-01T09:23:56;98532.06;;;10.60;41.75
12973;BME280;6551;51.056;9.466;2023-03-01T09:26:23;98527.56;;;10.67;41.93
12973;BME280;6551;51.056;9.466;2023-03-01T09:28:51;98529.88;;;10.35;42.24
12973;BME280;6551;51.056;9.466;2023-03-01T09:31:22;98522.56;;;10.16;42.16
12973;BME280;6551;51.056;9.466;2023-03-01T09:33:51;98531.34;;;9.89;42.74
12973;BME280;6551;51.056;9.466;2023-03-01T09:36:22;98522.13;;;9.64;43.34
12973;BME280;6551;51.056;9.466;2023-03-01T09:38:49;98526.56;;;10.06;43.50
12973;BME280;6551;51.056;9.466;2023-03-01T09:45:06;98520.53;;;10.46;42.01
12973;BME280;6551;51.056;9.466;2023-03-01T09:47:36;98515.06;;;10.61;42.46
12973;BME280;6551;51.056;9.466;2023-03-01T09:50:28;98506.31;;;10.73;41.80
12973;BME280;6551;51.056;9.466;2023-03-01T09:55:48;98509.97;;;10.72;41.52
12973;BME280;6551;51.056;9.466;2023-03-01T09:58:49;98504.19;;;11.16;41.46
12973;BME280;6551;51.056;9.466;2023-03-01T10:01:38;98508.16;;;11.86;40.69
12973;BME280;6551;51.056;9.466;2023-03-01T10:07:27;98506.94;;;12.14;39.23
12973;BME280;6551;51.056;9.466;2023-03-01T10:09:57;98492.16;;;11.92;39.92
12973;BME280;6551;51.056;9.466;2023-03-01T10:12:30;98500.53;;;12.28;39.48
12973;BME280;6551;51.056;9.466;2023-03-01T10:15:18;98499.13;;;12.06;39.40
12973;BME280;6551;51.056;9.466;2023-03-01T10:18:01;98503.41;;;12.33;39.30
12973;BME280;6551;51.056;9.466;2023-03-01T10:20:56;98490.91;;;12.85;39.22
12973;BME280;6551;51.056;9.466;2023-03-01T10:23:27;98499.41;;;12.62;38.18
12973;BME280;6551;51.056;9.466;2023-03-01T10:29:04;98493.19;;;12.75;38.63
12973;BME280;6551;51.056;9.466;2023-03-01T10:31:44;98484.00;;;12.58;38.98
12973;BME280;6551;51.056;9.466;2023-03-01T10:34:17;98480.19;;;12.34;38.87
12973;BME280;6551;51.056;9.466;2023-03-01T10:36:47;98487.00;;;12.17;39.73
12973;BME280;6551;51.056;9.466;2023-03-01T10:39:24;98476.75;;;12.07;39.57
12973;BME280;6551;51.056;9.466;2023-03-01T10:42:31;98483.31;;;11.59;39.68
12973;BME280;6551;51.056;9.466;2023-03-01T10:45:11;98473.47;;;11.27;40.01
12973;BME280;6551;51.056;9.466;2023-03-01T10:47:42;98478.94;;;11.05;40.51
12973;BME280;6551;51.056;9.466;2023-03-01T10:50:24;98479.22;;;11.63;40.40
12973;BME280;6551;51.056;9.466;2023-03-01T10:53:02;98474.91;;;11.49;39.91
12973;BME280;6551;51.056;9.466;2023-03-01T10:55:37;98473.28;;;11.54;39.60
12973;BME280;6551;51.056;9.466;2023-03-01T10:58:20;98464.22;;;12.08;39.24
12973;BME280;6551;51.056;9.466;2023-03-01T11:01:01;98471.38;;;12.27;39.16
12973;BME280;6551;51.056;9.466;2023-03-01T11:03:33;98466.75;;;12.60;38.69
12973;BME280;6551;51.056;9.466;2023-03-01T11:06:21;98468.25;;;12.37;38.88
12973;BME280;6551;51.056;9.466;2023-03-01T11:08:52;98461.53;;;12.21;38.62
12973;BME280;6551;51.056;9.466;2023-03-01T11:11:32;98457.44;;;12.18;38.83
12973;BME280;6551;51.056;9.466;2023-03-01T11:14:14;98463.03;;;11.84;38.85
12973;BME280;6551;51.056;9.466;2023-03-01T11:16:45;98461.78;;;11.87;39.28
12973;BME280;6551;51.056;9.466;2023-03-01T11:19:21;98451.47;;;12.16;39.16
12973;BME280;6551;51.056;9.466;2023-03-01T11:22:07;98458.16;;;12.52;38.33
12973;BME280;6551;51.056;9.466;2023-03-01T11:24:50;98449.31;;;12.51;37.79
12973;BME280;6551;51.056;9.466;2023-03-01T11:27:25;98458.81;;;12.27;38.52
12973;BME280;6551;51.056;9.466;2023-03-01T11:30:40;98429.63;;;12.39;37.38
12973;BME280;6551;51.056;9.466;2023-03-01T11:33:53;98443.53;;;11.84;37.83
12973;BME280;6551;51.056;9.466;2023-03-01T11:36:46;98441.25;;;12.00;38.21
12973;BME280;6551;51.056;9.466;2023-03-01T11:40:12;98437.06;;;12.30;37.68
12973;BME280;6551;51.056;9.466;2023-03-01T11:42:42;98429.19;;;12.49;37.31
12973;BME280;6551;51.056;9.466;2023-03-01T11:45:13;98429.94;;;12.62;37.42
12973;BME280;6551;51.056;9.466;2023-03-01T11:48:33;98433.41;;;12.69;37.37
12973;BME280;6551;51.056;9.466;2023-03-01T11:51:15;98423.34;;;12.65;36.94
12973;BME280;6551;51.056;9.466;2023-03-01T11:54:35;98420.25;;;12.23;36.82
12973;BME280;6551;51.056;9.466;2023-03-01T11:56:50;98427.47;;;11.97;37.06
12973;BME280;6551;51.056;9.466;2023-03-01T11:59:49;98426.06;;;11.94;36.99
12973;BME280;6551;51.056;9.466;2023-03-01T12:02:35;98424.28;;;12.39;36.48
12973;BME280;6551;51.056;9.466;2023-03-01T12:08:43;98422.50;;;12.20;38.01
12973;BME280;6551;51.056;9.466;2023-03-01T12:14:50;98412.75;;;12.52;35.85
12973;BME280;6551;51.056;9.466;2023-03-01T12:17:58;98409.31;;;12.38;37.72
12973;BME280;6551;51.056;9.466;2023-03-01T12:23:57;98387.63;;;12.08;36.79
12973;BME280;6551;51.056;9.466;2023-03-01T12:26:48;98387.69;;;11.89;36.71
12973;BME280;6551;51.056;9.466;2023-03-01T12:29:53;98391.22;;;11.76;38.00
12973;BME280;6551;51.056;9.466;2023-03-01T12:38:45;98374.00;;;12.29;38.42
12973;BME280;6551;51.056;9.466;2023-03-01T12:41:41;98369.91;;;12.27;38.03
12973;BME280;6551;51.056;9.466;2023-03-01T12:44:54;98365.16;;;11.45;38.64
12973;BME280;6551;51.056;9.466;2023-03-01T12:47:54;98375.41;;;11.55;39.41
12973;BME280;6551;51.056;9.466;2023-03-01T12:50:48;98361.88;;;11.63;38.84
12973;BME280;6551;51.056;9.466;2023-03-01T12:53:36;98360.66;;;11.06;39.02
12973;BME280;6551;51.056;9.466;2023-03-01T12:56:29;98365.38;;;11.04;40.01
12973;BME280;6551;51.056;9.466;2023-03-01T13:02:24;98362.91;;;10.90;39.93
12973;BME280;6551;51.056;9.466;2023-03-01T13:07:52;98363.88;;;10.09;40.91
12973;BME280;6551;51.056;9.466;2023-03-01T13:10:39;98354.41;;;9.59;41.82
12973;BME280;6551;51.056;9.466;2023-03-01T13:13:26;98352.13;;;9.56;41.16
12973;BME280;6551;51.056;9.466;2023-03-01T13:15:53;98355.69;;;9.07;41.92
12973;BME280;6551;51.056;9.466;2023-03-01T13:20:59;98358.66;;;8.98;41.70
12973;BME280;6551;51.056;9.466;2023-03-01T13:23:30;98347.94;;;8.85;41.90
12973;BME280;6551;51.056;9.466;2023-03-01T13:28:48;98336.41;;;8.77;41.58
12973;BME280;6551;51.056;9.466;2023-03-01T13:34:00;98335.34;;;8.51;42.11
12973;BME280;6551;51.056;9.466;2023-03-01T13:46:56;98326.44;;;8.79;42.16
12973;BME280;6551;51.056;9.466;2023-03-01T13:49:27;98324.34;;;8.96;42.51
12973;BME280;6551;51.056;9.466;2023-03-01T13:51:54;98324.28;;;8.90;42.16
12973;BME280;6551;51.056;9.466;2023-03-01T13:54:31;98326.78;;;8.98;42.88
12973;BME280;6551;51.056;9.466;2023-03-01T13:56:59;98324.81;;;9.06;42.47
12973;BME280;6551;51.056;9.466;2023-03-01T13:59:26;98319.13;;;9.09;41.53
12973;BME280;6551;51.056;9.466;2023-03-01T14:01:59;98309.34;;;8.89;40.73
12973;BME280;6551;51.056;9.466;2023-03-01T14:04:32;98310.50;;;8.79;40.53
12973;BME280;6551;51.056;9.466;2023-03-01T14:07:21;98315.00;;;8.79;40.90
12973;BME280;6551;51.056;9.466;2023-03-01T14:09:54;98305.34;;;8.71;40.81
12973;BME280;6551;51.056;9.466;2023-03-01T14:12:44;98297.56;;;8.98;40.44
12973;BME280;6551;51.056;9.466;2023-03-01T14:15:33;98302.13;;;9.04;40.53
12973;BME280;6551;51.056;9.466;2023-03-01T14:18:36;98303.50;;;9.00;39.57
12973;BME280;6551;51.056;9.466;2023-03-01T14:21:14;98303.94;;;8.75;39.28
12973;BME280;6551;51.056;9.466;2023-03-01T14:23:43;98308.22;;;8.76;39.30
12973;BME280;6551;51.056;9.466;2023-03-01T14:26:10;98298.22;;;8.78;39.11
12973;BME280;6551;51.056;9.466;2023-03-01T14:28:38;98293.50;;;8.74;39.12
12973;BME280;6551;51.056;9.466;2023-03-01T14:31:31;98285.31;;;8.97;39.77
12973;BME280;6551;51.056;9.466;2023-03-01T14:33:59;98285.66;;;8.87;40.17
12973;BME280;6551;51.056;9.466;2023-03-01T14:36:28;98284.66;;;8.67;39.84
12973;BME280;6551;51.056;9.466;2023-03-01T14:38:54;98276.91;;;8.65;40.17
12973;BME280;6551;51.056;9.466;2023-03-01T14:41:26;98268.78;;;8.73;40.79
12973;BME280;6551;51.056;9.466;2023-03-01T14:44:01;98269.47;;;8.82;40.91
12973;BME280;6551;51.056;9.466;2023-03-01T14:46:36;98272.84;;;8.97;41.26